Time;durP1;ratioP1;P1;durP2;ratioP2;P2;SDS_P1;SDS_P2;PMS_P1;PMS_P2;Temp;Humidity;BMP_temperature;BMP_pressure;BME280_temperature;BME280_humidity;BME280_pressure;Samples;Min_cycle;Max_cycle;Signal;HPM_P1;HPM_P2
2021/07/15 00:01:43;;;;;;;4.20;3.90;;;;;;;30.13;55.36;100746.97;5073281;27;69675;-34
2021/07/15 00:04:23;;;;;;;5.35;3.85;;;;;;;30.16;55.76;100754.66;5070686;27;65088;-35
2021/07/15 00:06:53;;;;;;;3.90;3.63;;;;;;;29.95;55.83;100715.25;5071046;27;68486;-36
2021/07/15 00:09:26;;;;;;;4.10;3.78;;;;;;;30.23;56.00;100750.91;5041421;27;43377;-35
2021/07/15 00:11:56;;;;;;;4.63;4.20;;;;;;;30.18;55.54;100742.56;5068858;27;69611;-35
2021/07/15 00:14:28;;;;;;;4.60;3.57;;;;;;;30.24;55.62;100752.53;5070099;27;65483;-37
2021/07/15 00:16:58;;;;;;;6.20;3.78;;;;;;;30.30;56.28;100752.72;5068694;27;69213;-35
2021/07/15 00:19:29;;;;;;;5.35;4.13;;;;;;;30.32;56.53;100759.56;5069607;27;66144;-34
2021/07/15 00:21:59;;;;;;;5.28;4.88;;;;;;;30.25;56.97;100743.38;5075258;27;70267;-34
2021/07/15 00:24:31;;;;;;;7.15;6.45;;;;;;;30.40;58.36;100759.31;5073548;27;65469;-34
2021/07/15 00:27:01;;;;;;;10.23;7.40;;;;;;;30.43;61.47;100745.34;5068900;27;69975;-35
2021/07/15 00:29:32;;;;;;;8.52;7.82;;;;;;;30.51;60.73;100760.47;5071863;27;66516;-35
2021/07/15 00:32:02;;;;;;;8.73;8.00;;;;;;;30.56;61.11;100765.22;5061303;27;71284;-33
2021/07/15 00:34:33;;;;;;;26.00;8.63;;;;;;;30.62;61.82;100772.44;5072098;27;65099;-34
2021/07/15 00:37:07;;;;;;;8.80;7.93;;;;;;;30.67;62.00;100764.47;5071067;27;69721;-35
2021/07/15 00:39:37;;;;;;;13.18;8.43;;;;;;;30.76;62.12;100771.28;5065357;27;66164;-35
2021/07/15 00:42:12;;;;;;;11.88;10.10;;;;;;;30.82;61.23;100781.28;5072878;27;70746;-35
2021/07/15 00:44:42;;;;;;;21.52;12.88;;;;;;;30.89;61.80;100781.19;5074709;27;66091;-35
2021/07/15 00:47:12;;;;;;;28.77;14.60;;;;;;;30.89;61.33;100773.06;5073937;27;69270;-35
2021/07/15 00:49:43;;;;;;;31.40;14.32;;;;;;;30.94;61.81;100779.47;5073110;27;66258;-35
2021/07/15 00:52:13;;;;;;;20.83;12.13;;;;;;;30.97;61.68;100778.19;5070901;27;70103;-33
2021/07/15 00:54:44;;;;;;;15.77;11.55;;;;;;;31.00;61.34;100777.75;5072530;27;65660;-33
2021/07/15 00:57:14;;;;;;;16.75;10.82;;;;;;;31.00;61.28;100776.94;5074140;27;69764;-34
2021/07/15 00:59:44;;;;;;;19.05;11.02;;;;;;;31.00;61.11;100783.16;5071890;27;66547;-33
2021/07/15 01:02:14;;;;;;;11.70;10.27;;;;;;;31.01;60.82;100784.84;5072493;27;70683;-35
2021/07/15 01:04:45;;;;;;;15.07;10.43;;;;;;;31.00;60.83;100774.22;5073673;27;65990;-34
2021/07/15 01:07:15;;;;;;;17.90;10.05;;;;;;;30.98;60.85;100773.59;5070623;27;70582;-34
2021/07/15 01:09:46;;;;;;;10.88;9.43;;;;;;;30.99;61.01;100781.53;5072830;27;65641;-37
2021/07/15 01:12:21;;;;;;;10.10;9.10;;;;;;;31.02;61.88;100785.66;5079448;27;69164;-35
2021/07/15 01:15:19;;;;;;;15.63;10.63;;;;;;;30.96;62.63;100781.97;5076886;27;65619;-33
2021/07/15 01:18:18;;;;;;;12.75;11.50;;;;;;;30.91;62.34;100781.81;5072853;27;70466;-35
2021/07/15 01:21:13;;;;;;;13.88;10.13;;;;;;;30.60;62.73;100744.78;5078884;27;65671;-30
2021/07/15 01:24:08;;;;;;;12.48;11.45;;;;;;;30.74;62.47;100789.63;5082167;27;70111;-29
2021/07/15 01:26:54;;;;;;;21.45;13.75;;;;;;;30.66;63.88;100793.44;5076225;27;66589;-30
2021/07/15 01:29:52;;;;;;;19.33;12.20;;;;;;;30.65;63.63;100791.78;5071512;27;69846;-29
2021/07/15 01:32:27;;;;;;;13.18;12.00;;;;;;;30.53;63.05;100755.66;5071795;27;66364;-29
2021/07/15 01:35:01;;;;;;;20.77;11.70;;;;;;;30.49;62.96;100743.63;5078750;27;69876;-30
2021/07/15 01:37:32;;;;;;;12.13;11.07;;;;;;;30.73;63.55;100783.41;5084643;27;65957;-29
2021/07/15 01:40:05;;;;;;;11.55;10.40;;;;;;;30.64;63.47;100771.16;5073354;27;70027;-30
2021/07/15 01:42:38;;;;;;;14.90;10.75;;;;;;;30.84;63.18;100794.56;5055579;28;66364;-30
2021/07/15 01:45:09;;;;;;;12.00;10.80;;;;;;;30.82;63.57;100788.56;5065784;27;70621;-29
2021/07/15 01:47:40;;;;;;;11.93;10.77;;;;;;;30.86;63.51;100804.13;5072773;27;65459;-31
2021/07/15 01:50:11;;;;;;;11.05;10.25;;;;;;;30.87;63.39;100799.53;5072824;27;72750;-29
2021/07/15 01:52:42;;;;;;;11.10;10.10;;;;;;;30.90;63.92;100799.13;5065318;27;65710;-30
2021/07/15 01:55:13;;;;;;;10.60;9.73;;;;;;;30.94;63.40;100801.16;5074936;27;70353;-31
2021/07/15 01:57:44;;;;;;;11.85;10.60;;;;;;;30.96;63.73;100792.81;5068391;27;66768;-32
2021/07/15 02:00:15;;;;;;;12.77;10.05;;;;;;;30.96;64.00;100803.66;5068469;27;69722;-30
2021/07/15 02:02:47;;;;;;;11.65;10.20;;;;;;;30.97;63.84;100805.28;5069465;27;66062;-31
2021/07/15 02:05:19;;;;;;;9.48;8.68;;;;;;;31.03;63.71;100803.56;5067911;27;69241;-31
2021/07/15 02:07:49;;;;;;;11.07;10.17;;;;;;;30.96;63.45;100798.22;5054380;27;66344;-30
2021/07/15 02:10:25;;;;;;;10.80;9.88;;;;;;;30.94;63.53;100779.47;5067643;27;70154;-30
2021/07/15 02:12:57;;;;;;;11.18;10.07;;;;;;;31.09;63.54;100814.34;5066944;27;66482;-31
2021/07/15 02:15:29;;;;;;;10.88;10.07;;;;;;;31.11;63.48;100806.00;5071637;27;70082;-31
2021/07/15 02:18:00;;;;;;;10.32;9.30;;;;;;;30.68;63.98;100748.03;5069027;27;67174;-30
2021/07/15 02:20:32;;;;;;;10.52;9.57;;;;;;;30.88;63.47;100768.72;5066770;27;69905;-30
2021/07/15 02:23:03;;;;;;;10.52;9.63;;;;;;;31.13;63.21;100803.91;5071227;27;66781;-30
2021/07/15 02:25:40;;;;;;;11.10;10.10;;;;;;;31.17;63.55;100805.94;5067016;27;70752;-31
2021/07/15 02:28:15;;;;;;;10.60;9.68;;;;;;;31.19;63.14;100807.59;5072086;27;66954;-31
2021/07/15 02:30:49;;;;;;;11.23;10.23;;;;;;;31.19;63.72;100794.03;5070144;27;70013;-32
2021/07/15 02:33:24;;;;;;;13.23;10.15;;;;;;;31.20;63.18;100798.41;5064278;27;65710;-30
2021/07/15 02:35:57;;;;;;;16.60;10.90;;;;;;;31.03;62.99;100771.06;5064273;27;67377;-30
2021/07/15 02:38:31;;;;;;;11.63;10.63;;;;;;;31.21;63.47;100800.06;5062917;27;67051;-31
2021/07/15 02:41:02;;;;;;;12.82;11.52;;;;;;;31.22;63.21;100801.72;5066000;27;69520;-30
2021/07/15 02:43:32;;;;;;;17.00;11.63;;;;;;;31.21;63.16;100792.75;5064852;27;66119;-31
2021/07/15 02:46:02;;;;;;;11.60;10.75;;;;;;;31.27;62.95;100801.88;5068466;27;70086;-31
2021/07/15 02:48:33;;;;;;;17.55;11.20;;;;;;;31.27;63.65;100799.16;5071337;27;65212;-30
2021/07/15 02:51:03;;;;;;;16.75;11.77;;;;;;;31.32;63.56;100807.44;5065867;27;69343;-31
2021/07/15 02:53:34;;;;;;;12.25;11.05;;;;;;;31.36;62.99;100797.84;5064621;27;66417;-30
2021/07/15 02:56:24;;;;;;;12.27;11.17;;;;;;;31.37;63.08;100802.19;5072479;27;70233;-30
2021/07/15 02:59:03;;;;;;;13.05;12.02;;;;;;;31.44;63.47;100802.97;5068339;27;66063;-30
2021/07/15 03:02:35;;;;;;;13.18;11.48;;;;;;;31.39;63.36;100798.19;5068078;27;69127;-30
2021/07/15 03:05:10;;;;;;;13.32;10.93;;;;;;;31.32;62.65;100770.34;5011938;28;67266;-31
2021/07/15 03:08:09;;;;;;;12.27;11.15;;;;;;;31.30;62.78;100760.78;5010155;28;70204;-30
2021/07/15 03:10:41;;;;;;;12.55;11.32;;;;;;;31.58;62.61;100796.31;5056967;27;66357;-29
2021/07/15 03:13:13;;;;;;;12.43;11.32;;;;;;;31.61;62.99;100795.88;5066441;27;69926;-31
2021/07/15 03:15:44;;;;;;;11.68;10.60;;;;;;;31.67;62.56;100796.00;5067222;27;65608;-30
2021/07/15 03:18:20;;;;;;;11.63;10.68;;;;;;;31.71;62.39;100791.81;5047323;28;69907;-29
2021/07/15 03:20:53;;;;;;;11.77;10.35;;;;;;;31.67;62.18;100793.31;5069740;27;66196;-31
2021/07/15 03:23:25;;;;;;;11.50;10.35;;;;;;;31.74;62.13;100804.91;5069552;27;69756;-30
2021/07/15 03:25:58;;;;;;;11.15;10.23;;;;;;;31.74;62.45;100794.06;5071100;27;66282;-30
2021/07/15 03:28:37;;;;;;;10.55;9.75;;;;;;;31.80;62.76;100798.56;5068191;27;70426;-29
2021/07/15 03:31:09;;;;;;;10.02;9.23;;;;;;;31.67;62.29;100767.00;5068196;27;65609;-30
2021/07/15 03:33:41;;;;;;;10.23;9.43;;;;;;;31.85;62.10;100801.41;5080215;27;69681;-29
2021/07/15 03:36:12;;;;;;;10.60;9.80;;;;;;;31.81;62.40;100800.22;5067854;27;65589;-31
2021/07/15 03:38:45;;;;;;;10.73;9.80;;;;;;;31.80;62.52;100798.56;5071241;27;69922;-30
2021/07/15 03:41:16;;;;;;;9.63;8.88;;;;;;;31.78;62.23;100789.81;5063934;27;66575;-29
2021/07/15 03:43:47;;;;;;;12.50;8.45;;;;;;;31.88;62.59;100803.69;5071558;27;70348;-30
2021/07/15 03:46:20;;;;;;;9.23;8.52;;;;;;;31.87;62.85;100799.28;5068853;27;66286;-30
2021/07/15 03:48:51;;;;;;;11.05;8.68;;;;;;;31.88;62.88;100798.25;5066255;27;67933;-30
2021/07/15 03:51:21;;;;;;;8.05;7.55;;;;;;;31.91;63.10;100792.41;5066121;27;66107;-28
2021/07/15 03:53:52;;;;;;;10.50;8.32;;;;;;;31.88;63.19;100783.88;5069388;27;69588;-30
2021/07/15 03:56:23;;;;;;;8.30;7.70;;;;;;;31.96;63.03;100799.84;5066473;27;65437;-29
2021/07/15 03:58:55;;;;;;;10.15;7.25;;;;;;;31.93;63.09;100803.84;5066574;27;69315;-33
2021/07/15 04:01:25;;;;;;;7.50;6.85;;;;;;;31.96;63.31;100803.38;5066788;27;65501;-30
2021/07/15 04:03:57;;;;;;;12.57;7.15;;;;;;;31.95;63.21;100796.28;5068836;27;70255;-32
2021/07/15 04:06:30;;;;;;;7.97;7.13;;;;;;;31.95;63.55;100793.56;5073827;27;65623;-30
2021/07/15 04:09:01;;;;;;;11.00;6.40;;;;;;;31.95;63.38;100796.28;5068248;27;70617;-32
2021/07/15 04:11:33;;;;;;;6.23;5.47;;;;;;;31.93;63.40;100793.00;5073079;27;65204;-29
2021/07/15 04:14:10;;;;;;;7.97;4.82;;;;;;;31.95;63.24;100784.63;5068740;27;69338;-30
2021/07/15 04:17:05;;;;;;;19.23;4.57;;;;;;;31.95;63.81;100790.88;5071976;27;66329;-30
2021/07/15 04:19:38;;;;;;;7.65;5.63;;;;;;;32.04;62.35;100781.38;5073736;27;69342;-31
2021/07/15 04:22:12;;;;;;;5.65;5.18;;;;;;;31.87;63.00;100745.03;5070933;27;67024;-29
2021/07/15 04:24:43;;;;;;;6.10;5.70;;;;;;;32.10;61.54;100771.47;5071021;27;70343;-31
2021/07/15 04:27:16;;;;;;;13.93;8.52;;;;;;;32.15;61.95;100770.75;5045980;28;66397;-35
2021/07/15 04:29:47;;;;;;;10.10;7.72;;;;;;;32.18;62.36;100763.00;5055236;27;69348;-33
2021/07/15 04:33:07;;;;;;;16.83;6.97;;;;;;;32.10;62.75;100760.63;5071637;27;64503;-30
2021/07/15 04:35:39;;;;;;;12.15;6.03;;;;;;;32.17;63.59;100755.06;5053226;27;70452;-31
2021/07/15 04:38:09;;;;;;;12.50;5.70;;;;;;;32.11;63.39;100735.13;5070840;27;65435;-29
2021/07/15 04:40:40;;;;;;;10.93;7.00;;;;;;;32.19;62.63;100737.50;5075756;27;69468;-30
2021/07/15 04:43:11;;;;;;;6.47;5.90;;;;;;;32.26;62.84;100727.38;5065529;27;65904;-29
2021/07/15 04:45:44;;;;;;;8.63;6.97;;;;;;;32.24;63.29;100724.06;5072347;27;70828;-29
2021/07/15 04:48:17;;;;;;;10.48;5.70;;;;;;;32.28;63.02;100727.13;5069783;28;66307;-29
2021/07/15 04:50:50;;;;;;;10.45;6.28;;;;;;;32.07;63.98;100676.13;5065455;27;71046;-29
2021/07/15 04:53:24;;;;;;;6.53;6.10;;;;;;;32.13;62.27;100667.06;5065404;27;66415;-30
2021/07/15 04:55:54;;;;;;;44.20;13.45;;;;;;;32.41;61.54;100702.50;5083609;27;70369;-28
2021/07/15 04:58:25;;;;;;;41.13;14.98;;;;;;;32.45;61.20;100698.22;5071869;27;66134;-28
2021/07/15 05:00:55;;;;;;;26.73;13.07;;;;;;;32.51;60.49;100693.78;5069028;27;69630;-28
2021/07/15 05:03:34;;;;;;;25.02;10.93;;;;;;;32.56;59.53;100687.66;5071437;27;65739;-31
2021/07/15 05:06:07;;;;;;;10.68;9.45;;;;;;;32.47;59.52;100655.41;5066581;27;70028;-29
2021/07/15 05:08:39;;;;;;;14.35;10.13;;;;;;;32.62;59.49;100671.22;5065728;27;66131;-28
2021/07/15 05:11:12;;;;;;;14.15;9.20;;;;;;;32.64;59.99;100671.00;5075179;27;70427;-28
2021/07/15 05:13:42;;;;;;;12.95;9.52;;;;;;;32.64;59.90;100662.84;5067194;27;66908;-29
2021/07/15 05:16:13;;;;;;;14.05;9.45;;;;;;;32.62;60.21;100659.53;5063801;27;70362;-30
2021/07/15 05:18:43;;;;;;;10.93;8.82;;;;;;;32.63;59.84;100663.91;5068577;27;66376;-31
2021/07/15 05:21:14;;;;;;;8.80;8.07;;;;;;;32.59;60.43;100665.44;5069271;27;69840;-30
2021/07/15 05:23:44;;;;;;;15.40;7.68;;;;;;;32.52;60.94;100649.28;5075441;27;66194;-31
2021/07/15 05:26:15;;;;;;;14.30;7.72;;;;;;;32.54;61.82;100657.19;5070979;27;70092;-29
2021/07/15 05:28:46;;;;;;;11.98;7.40;;;;;;;32.53;61.64;100655.53;5070653;27;66705;-29
2021/07/15 05:31:18;;;;;;;11.65;7.60;;;;;;;32.54;62.00;100651.75;5069184;27;69005;-28
2021/07/15 05:33:49;;;;;;;19.35;7.32;;;;;;;32.52;61.78;100649.28;5072523;27;66403;-31
2021/07/15 05:36:19;;;;;;;12.17;6.93;;;;;;;32.52;62.10;100640.31;5066102;27;69087;-30
2021/07/15 05:38:49;;;;;;;10.57;7.10;;;;;;;32.47;62.13;100628.25;5072552;27;65466;-31
2021/07/15 05:41:34;;;;;;;6.75;6.25;;;;;;;32.52;61.61;100634.88;5056446;27;70088;-32
2021/07/15 05:44:05;;;;;;;8.00;7.33;;;;;;;32.51;61.86;100625.06;5055911;28;66420;-29
2021/07/15 05:46:35;;;;;;;10.30;6.78;;;;;;;32.54;61.93;100620.00;5067384;27;70365;-31
2021/07/15 05:49:06;;;;;;;8.13;6.70;;;;;;;32.48;61.85;100615.50;5064838;27;66794;-29
2021/07/15 05:51:37;;;;;;;9.27;6.50;;;;;;;32.37;61.77;100586.47;5072153;27;70032;-30
2021/07/15 05:54:07;;;;;;;6.60;5.90;;;;;;;32.56;61.62;100606.19;5068623;27;66628;-29
2021/07/15 05:56:38;;;;;;;7.15;5.72;;;;;;;32.59;61.67;100594.84;5070737;27;69539;-33
2021/07/15 05:59:08;;;;;;;6.53;5.77;;;;;;;32.57;61.95;100591.53;5068592;27;67223;-30
2021/07/15 06:01:39;;;;;;;6.15;5.60;;;;;;;32.61;61.65;100590.00;5069862;27;69341;-28
2021/07/15 06:04:09;;;;;;;6.70;6.15;;;;;;;32.62;61.46;100583.50;5071413;28;65896;-29
2021/07/15 06:06:39;;;;;;;6.35;5.85;;;;;;;32.58;61.46;100577.72;5076192;27;70379;-30
2021/07/15 06:09:10;;;;;;;5.95;5.55;;;;;;;32.64;61.87;100578.66;5052432;28;65299;-30
2021/07/15 06:11:41;;;;;;;5.75;5.35;;;;;;;32.66;61.53;100581.97;5058872;27;70066;-32
2021/07/15 06:14:12;;;;;;;5.97;5.50;;;;;;;32.63;61.67;100577.03;5074319;27;66580;-29
2021/07/15 06:16:43;;;;;;;5.38;4.95;;;;;;;32.63;61.82;100572.41;5073562;27;70645;-31
2021/07/15 06:19:14;;;;;;;5.67;5.03;;;;;;;32.60;61.19;100567.47;5068684;27;66025;-30
2021/07/15 06:21:44;;;;;;;5.30;4.80;;;;;;;32.60;59.65;100566.63;5066244;27;70213;-29
2021/07/15 06:24:14;;;;;;;4.93;4.50;;;;;;;32.51;58.20;100568.06;5074722;27;66803;-30
2021/07/15 06:26:47;;;;;;;6.63;4.70;;;;;;;32.38;56.93;100560.97;5070165;27;69810;-30
2021/07/15 06:29:18;;;;;;;4.82;4.43;;;;;;;32.27;55.26;100549.88;5065402;27;65905;-30
2021/07/15 06:31:49;;;;;;;4.88;4.47;;;;;;;32.13;53.96;100553.09;5068101;27;69638;-33
2021/07/15 06:34:20;;;;;;;;;;;;;;;31.79;52.33;100541.97;5076517;27;65812;-33
2021/07/15 06:36:51;;;;;;;4.47;4.07;;;;;;;31.95;52.15;100541.28;5073308;27;70115;-30
2021/07/15 06:39:22;;;;;;;4.93;4.53;;;;;;;31.87;50.71;100533.47;5072170;27;66468;-31
2021/07/15 06:41:53;;;;;;;4.38;4.03;;;;;;;31.79;50.75;100531.13;5072639;27;69906;-29
2021/07/15 06:44:24;;;;;;;;;;;;;;;31.44;49.34;100523.75;5069796;27;66288;-28
2021/07/15 06:46:54;;;;;;;4.32;3.92;;;;;;;31.59;49.80;100518.72;5071489;27;69093;-31
2021/07/15 06:49:27;;;;;;;3.95;3.63;;;;;;;31.51;49.18;100513.66;5067651;27;65516;-31
2021/07/15 06:51:58;;;;;;;4.60;3.83;;;;;;;31.48;49.07;100514.13;5076758;27;70512;-30
2021/07/15 06:54:30;;;;;;;4.05;3.63;;;;;;;31.43;48.03;100505.03;5066816;27;66222;-33
2021/07/15 06:57:00;;;;;;;;;;;;;;;31.16;48.17;100500.78;5068003;27;70205;-34
2021/07/15 06:59:30;;;;;;;4.97;3.58;;;;;;;31.35;47.70;100504.28;5069084;27;65594;-31
2021/07/15 07:02:01;;;;;;;4.82;3.53;;;;;;;31.31;46.90;100502.25;5079301;27;68594;-30
2021/07/15 07:04:32;;;;;;;3.67;3.47;;;;;;;31.31;47.33;100497.66;5073441;27;65587;-27
2021/07/15 07:07:04;;;;;;;9.90;3.23;;;;;;;31.24;46.11;100504.25;5073292;27;69930;-32
2021/07/15 07:09:35;;;;;;;4.78;3.33;;;;;;;31.22;46.43;100507.19;5068434;27;64996;-32
2021/07/15 07:12:07;;;;;;;4.60;3.60;;;;;;;31.19;46.19;100509.53;5050417;28;69515;-30
2021/07/15 07:14:37;;;;;;;3.35;3.15;;;;;;;31.14;44.92;100511.03;5067840;27;66768;-30
2021/07/15 07:17:08;;;;;;;4.70;3.10;;;;;;;31.13;45.75;100501.25;5069670;27;70294;-30
2021/07/15 07:19:40;;;;;;;;;;;;;;;30.88;44.15;100509.53;5068879;27;65102;-34
2021/07/15 07:22:11;;;;;;;2.60;2.33;;;;;;;31.07;44.68;100502.19;5068951;27;70475;-31
2021/07/15 07:24:45;;;;;;;3.33;2.92;;;;;;;31.09;44.75;100505.50;5066899;27;66377;-30
2021/07/15 07:27:16;;;;;;;3.63;2.90;;;;;;;31.05;44.19;100498.06;5067903;27;70372;-30
2021/07/15 07:29:47;;;;;;;2.78;2.58;;;;;;;31.03;43.74;100479.31;5055459;27;66711;-30
2021/07/15 07:32:17;;;;;;;2.50;2.30;;;;;;;31.05;43.76;100482.63;5071018;27;70045;-32
2021/07/15 07:34:49;;;;;;;2.15;2.05;;;;;;;31.05;43.37;100468.25;5071096;27;66207;-30
2021/07/15 07:37:19;;;;;;;2.15;1.92;;;;;;;31.08;43.07;100465.91;5070416;27;70409;-28
2021/07/15 07:39:50;;;;;;;2.28;2.08;;;;;;;31.06;43.01;100459.88;5071242;27;65666;-29
2021/07/15 07:42:20;;;;;;;2.58;2.38;;;;;;;31.04;42.47;100458.50;5071374;27;69709;-33
2021/07/15 07:44:51;;;;;;;3.83;2.40;;;;;;;31.07;42.92;100458.03;5052966;27;66674;-28
2021/07/15 07:47:21;;;;;;;3.22;2.15;;;;;;;31.05;42.22;100450.13;5071117;27;70001;-29
2021/07/15 07:49:52;;;;;;;2.47;2.28;;;;;;;31.08;42.75;100460.50;5066663;27;65321;-33
2021/07/15 07:52:22;;;;;;;2.92;2.50;;;;;;;31.06;43.16;100450.94;5070195;27;70079;-30
2021/07/15 07:54:52;;;;;;;4.22;2.53;;;;;;;31.07;43.91;100458.03;5069295;27;65530;-29
2021/07/15 07:57:23;;;;;;;4.35;2.15;;;;;;;31.07;43.26;100437.19;5071707;27;69443;-28
2021/07/15 07:59:53;;;;;;;4.03;2.33;;;;;;;31.09;43.40;100428.81;5068870;27;66357;-28
2021/07/15 08:02:24;;;;;;;5.95;2.35;;;;;;;31.09;42.92;100435.06;5047017;27;70351;-30
2021/07/15 08:04:55;;;;;;;2.42;2.22;;;;;;;31.09;42.29;100440.50;5071992;27;65256;-33
2021/07/15 08:07:25;;;;;;;6.18;3.03;;;;;;;31.07;42.77;100442.59;5073604;27;69264;-29
2021/07/15 08:09:55;;;;;;;6.07;3.25;;;;;;;31.06;42.60;100454.47;5071245;27;66067;-27
2021/07/15 08:12:26;;;;;;;8.30;2.92;;;;;;;31.04;42.58;100456.59;5069188;27;70258;-29
2021/07/15 08:14:56;;;;;;;13.93;3.25;;;;;;;30.94;42.57;100448.22;5068964;27;65884;-30
2021/07/15 08:17:27;;;;;;;4.18;2.83;;;;;;;31.00;42.14;100458.13;5065574;27;70467;-28
2021/07/15 08:19:57;;;;;;;24.45;4.47;;;;;;;30.91;45.40;100437.84;5068875;27;65619;-33
2021/07/15 08:22:28;;;;;;;39.28;7.75;;;;;;;31.11;48.62;100459.19;5071857;27;69279;-30
2021/07/15 08:24:58;;;;;;;73.72;11.18;;;;;;;31.26;53.93;100477.72;5066260;27;66061;-29
2021/07/15 08:27:29;;;;;;;79.78;13.73;;;;;;;31.38;56.32;100465.06;5073609;27;70180;-29
2021/07/15 08:30:00;;;;;;;69.55;11.55;;;;;;;31.60;57.66;100478.88;5072443;27;67557;-31
2021/07/15 08:32:30;;;;;;;67.00;9.50;;;;;;;31.74;58.52;100480.28;5072354;27;70654;-31
2021/07/15 08:35:20;;;;;;;48.92;10.90;;;;;;;31.87;58.37;100500.91;5070864;27;66276;-32
2021/07/15 08:37:51;;;;;;;32.55;9.75;;;;;;;31.95;58.91;100492.44;5066305;27;69590;-34
2021/07/15 08:40:21;;;;;;;52.42;11.27;;;;;;;31.95;59.34;100495.16;5063953;27;65167;-30
2021/07/15 08:42:53;;;;;;;65.93;12.88;;;;;;;32.02;59.29;100492.34;5069808;27;70365;-28
2021/07/15 08:45:24;;;;;;;66.38;12.43;;;;;;;32.10;59.70;100510.16;5069432;27;66316;-31
2021/07/15 08:47:56;;;;;;;54.13;11.63;;;;;;;31.88;60.63;100483.59;5064397;27;69967;-30
2021/07/15 08:50:28;;;;;;;55.50;11.65;;;;;;;32.04;59.99;100506.50;5062100;27;65856;-29
2021/07/15 08:52:59;;;;;;;36.83;10.38;;;;;;;32.26;60.27;100552.81;5065393;27;69858;-30
2021/07/15 08:58:18;;;;;;;42.92;9.88;;;;;;;32.09;60.44;100547.28;5048108;27;69643;-30
2021/07/15 09:00:49;;;;;;;32.55;9.25;;;;;;;32.31;60.14;100581.97;5049611;27;66366;-31
2021/07/15 09:03:20;;;;;;;27.65;9.52;;;;;;;32.31;60.50;100590.94;5059570;27;69570;-29
2021/07/15 09:05:50;;;;;;;34.67;7.85;;;;;;;32.32;60.52;100603.47;5064821;27;66060;-29
2021/07/15 09:08:21;;;;;;;18.85;8.13;;;;;;;32.35;61.35;100611.13;5069175;27;69941;-29
2021/07/15 09:10:51;;;;;;;20.33;7.00;;;;;;;32.34;60.81;100627.66;5067418;27;65210;-34
2021/07/15 09:13:21;;;;;;;24.63;7.05;;;;;;;32.38;60.97;100626.13;5065902;27;70127;-29
2021/07/15 09:15:55;;;;;;;12.55;6.32;;;;;;;32.38;61.44;100626.94;5069775;27;65366;-30
2021/07/15 09:18:26;;;;;;;16.30;6.23;;;;;;;32.38;61.59;100621.53;5069304;27;69692;-30
2021/07/15 09:20:59;;;;;;;15.52;6.15;;;;;;;32.38;61.72;100629.66;5063303;27;66337;-30
2021/07/15 09:23:34;;;;;;;9.85;5.47;;;;;;;32.33;62.11;100628.72;5069927;27;69683;-29
2021/07/15 09:26:04;;;;;;;10.50;5.03;;;;;;;32.38;61.53;100643.25;5065309;27;66376;-30
2021/07/15 09:28:34;;;;;;;9.13;4.85;;;;;;;32.38;61.82;100648.66;5063261;27;69589;-31
2021/07/15 09:31:16;;;;;;;6.00;5.00;;;;;;;32.36;63.53;100656.22;5064504;27;64616;-28
2021/07/15 09:33:47;;;;;;;11.00;5.05;;;;;;;32.35;62.68;100660.00;5070033;27;70053;-29
2021/07/15 09:36:21;;;;;;;5.22;4.72;;;;;;;32.01;62.36;100613.63;5072308;27;65984;-30
2021/07/15 09:38:52;;;;;;;7.50;4.63;;;;;;;32.24;63.28;100668.97;5070653;27;70689;-29
2021/07/15 09:41:23;;;;;;;6.55;3.75;;;;;;;32.17;63.03;100674.47;5054440;28;67610;-32
2021/07/15 09:44:00;;;;;;;8.52;3.95;;;;;;;32.08;63.39;100681.31;5055761;28;69521;-28
2021/07/15 09:46:36;;;;;;;11.18;6.78;;;;;;;32.05;63.12;100671.75;5074027;27;65050;-32
2021/07/15 09:49:08;;;;;;;10.98;7.43;;;;;;;31.99;64.53;100669.97;5074735;27;70008;-33
2021/07/15 09:51:45;;;;;;;9.13;6.28;;;;;;;31.87;64.77;100641.97;5071963;27;66702;-29
2021/07/15 09:54:16;;;;;;;6.90;5.38;;;;;;;32.02;64.53;100674.94;5076479;27;69563;-31
2021/07/15 09:56:47;;;;;;;8.43;5.70;;;;;;;32.01;64.97;100667.03;5078977;27;66479;-30
2021/07/15 09:59:17;;;;;;;10.13;6.55;;;;;;;32.05;65.24;100668.22;5077210;27;70111;-30
2021/07/15 10:01:50;;;;;;;12.65;7.60;;;;;;;32.05;65.17;100677.19;5076285;27;66214;-31
2021/07/15 10:04:29;;;;;;;11.48;7.60;;;;;;;32.02;65.48;100666.81;5072290;27;70791;-30
2021/07/15 10:07:02;;;;;;;8.93;7.72;;;;;;;32.10;65.69;100678.38;5075697;27;65688;-32
2021/07/15 10:09:32;;;;;;;10.73;7.90;;;;;;;32.08;65.66;100683.22;5073871;27;70499;-31
2021/07/15 10:12:03;;;;;;;12.45;7.43;;;;;;;32.05;65.53;100688.03;5063894;27;66902;-31
2021/07/15 10:14:36;;;;;;;10.70;7.80;;;;;;;32.05;65.79;100696.19;5077726;27;70020;-31
2021/07/15 10:17:08;;;;;;;16.65;8.55;;;;;;;32.03;65.93;100702.91;5069130;27;66461;-29
2021/07/15 10:19:38;;;;;;;14.30;9.57;;;;;;;32.00;66.31;100712.31;5073294;27;70813;-32
2021/07/15 10:22:10;;;;;;;12.90;10.68;;;;;;;31.99;66.31;100721.53;5056752;28;65253;-32
2021/07/15 10:24:40;;;;;;;26.38;11.77;;;;;;;31.97;66.43;100731.78;5072196;27;69928;-31
2021/07/15 10:27:11;;;;;;;20.38;12.15;;;;;;;31.96;66.07;100749.13;5072784;27;65519;-30
2021/07/15 10:29:42;;;;;;;18.67;10.73;;;;;;;31.89;66.50;100753.78;5072243;27;70222;-30
2021/07/15 10:32:12;;;;;;;17.98;10.65;;;;;;;31.93;67.25;100765.00;5055249;28;65210;-31
2021/07/15 10:34:44;;;;;;;21.08;10.27;;;;;;;31.86;66.58;100770.50;5071369;27;70375;-30
2021/07/15 10:37:15;;;;;;;14.87;9.37;;;;;;;31.58;67.23;100725.00;5071811;27;66291;-32
2021/07/15 10:39:46;;;;;;;10.25;8.27;;;;;;;31.81;66.99;100767.66;5069503;27;70137;-30
2021/07/15 10:42:17;;;;;;;10.23;7.10;;;;;;;31.80;67.14;100760.59;5058809;27;66316;-29
2021/07/15 10:44:48;;;;;;;8.32;6.60;;;;;;;31.82;66.98;100763.91;5068405;27;69530;-29
2021/07/15 10:47:19;;;;;;;7.78;6.70;;;;;;;31.83;67.22;100760.94;5067817;27;65523;-30
2021/07/15 10:49:50;;;;;;;7.63;6.85;;;;;;;31.82;67.61;100763.91;5068716;27;69846;-30
2021/07/15 10:52:21;;;;;;;7.22;6.22;;;;;;;31.84;67.53;100769.91;5069852;27;66518;-30
2021/07/15 10:54:52;;;;;;;;;;;;;;;31.50;69.00;100761.38;5067750;27;70114;-34
2021/07/15 10:57:26;;;;;;;15.95;4.90;;;;;;;31.53;69.25;100766.34;5069346;27;65862;-33
2021/07/15 11:00:26;;;;;;;5.82;5.22;;;;;;;31.42;69.49;100769.81;5065219;27;70055;-33
2021/07/15 11:03:21;;;;;;;5.40;4.90;;;;;;;31.26;70.24;100749.56;5063444;27;66600;-33
2021/07/15 11:06:09;;;;;;;4.73;4.33;;;;;;;31.37;70.32;100778.66;5081313;27;70288;-33
2021/07/15 11:08:45;;;;;;;5.13;4.72;;;;;;;31.39;69.90;100786.53;5073753;27;65963;-35
2021/07/15 11:11:31;;;;;;;4.65;4.25;;;;;;;31.39;70.58;100797.38;5068595;27;69275;-34
2021/07/15 11:14:02;;;;;;;3.83;3.53;;;;;;;31.36;70.32;100808.69;5065696;27;66691;-33
2021/07/15 11:16:50;;;;;;;6.87;4.00;;;;;;;31.30;70.79;100804.94;5064753;27;69424;-33
2021/07/15 11:19:59;;;;;;;3.58;3.22;;;;;;;31.31;70.40;100800.34;5065859;27;66554;-34
2021/07/15 11:22:34;;;;;;;9.27;3.80;;;;;;;31.37;70.37;100810.31;5063485;28;70062;-34
2021/07/15 11:25:11;;;;;;;7.65;3.58;;;;;;;31.39;70.25;100816.34;5068131;27;65620;-35
2021/07/15 11:27:44;;;;;;;3.55;3.25;;;;;;;31.38;70.27;100817.41;5064503;27;69533;-34
2021/07/15 11:30:26;;;;;;;3.13;2.83;;;;;;;31.32;70.51;100819.13;5066548;27;66187;-34
2021/07/15 11:33:27;;;;;;;4.57;3.63;;;;;;;31.16;70.45;100793.44;5066561;27;69436;-34
2021/07/15 11:36:05;;;;;;;3.35;3.10;;;;;;;31.31;70.02;100819.31;5068442;27;66477;-38
2021/07/15 11:38:53;;;;;;;3.15;2.85;;;;;;;31.30;69.80;100828.53;5066099;27;68989;-35
2021/07/15 11:41:24;;;;;;;8.38;3.60;;;;;;;31.31;70.46;100828.28;5067998;27;66349;-34
2021/07/15 11:43:56;;;;;;;5.05;3.15;;;;;;;31.15;70.20;100808.03;5073163;27;69375;-34
2021/07/15 11:46:28;;;;;;;;;;;;;;;31.04;70.93;100837.75;5075282;27;65241;-35
2021/07/15 11:49:01;;;;;;;;;;;;;;;31.00;71.17;100842.75;5070981;27;70321;-34
2021/07/15 11:51:46;;;;;;;3.80;3.40;;;;;;;31.21;70.84;100840.72;5066491;27;66115;-34